sensor_id;sensor_type;location;lat;lon;timestamp;pressure;altitude;pressure_sealevel;temperature;humidity
8398;BME280;4236;54.504;9.588;2023-09-19T00:00:38;100013.31;;;17.56;100.00
8398;BME280;4236;54.504;9.588;2023-09-19T00:03:08;100020.00;;;17.54;100.00
8398;BME280;4236;54.504;9.588;2023-09-19T00:05:37;100031.88;;;17.53;100.00
8398;BME280;4236;54.504;9.588;2023-09-19T00:08:05;100057.69;;;17.44;100.00
8398;BME280;4236;54.504;9.588;2023-09-19T00:10:34;100063.06;;;17.44;100.00
8398;BME280;4236;54.504;9.588;2023-09-19T00:13:03;100060.63;;;17.42;100.00
8398;BME280;4236;54.504;9.588;2023-09-19T00:15:38;100062.72;;;17.35;100.00
8398;BME280;4236;54.504;9.588;2023-09-19T00:18:07;100068.03;;;17.25;100.00
8398;BME280;4236;54.504;9.588;2023-09-19T00:20:36;100062.09;;;17.23;100.00
8398;BME280;4236;54.504;9.588;2023-09-19T00:23:05;100062.31;;;17.17;100.00
8398;BME280;4236;54.504;9.588;2023-09-19T00:25:35;100067.63;;;17.11;100.00
8398;BME280;4236;54.504;9.588;2023-09-19T00:28:04;100060.28;;;17.02;100.00
8398;BME280;4236;54.504;9.588;2023-09-19T00:30:34;100064.84;;;17.01;100.00
8398;BME280;4236;54.504;9.588;2023-09-19T00:33:04;100061.00;;;16.92;100.00
8398;BME280;4236;54.504;9.588;2023-09-19T00:35:32;100059.03;;;16.88;100.00
8398;BME280;4236;54.504;9.588;2023-09-19T00:38:00;100071.41;;;16.84;100.00
8398;BME280;4236;54.504;9.588;2023-09-19T00:40:29;100075.44;;;16.81;100.00
8398;BME280;4236;54.504;9.588;2023-09-19T00:42:58;100080.50;;;16.78;100.00
8398;BME280;4236;54.504;9.588;2023-09-19T00:45:27;100071.06;;;16.75;100.00
8398;BME280;4236;54.504;9.588;2023-09-19T00:47:56;100075.84;;;16.73;100.00
8398;BME280;4236;54.504;9.588;2023-09-19T00:50:27;100073.75;;;16.75;100.00
8398;BME280;4236;54.504;9.588;2023-09-19T00:52:55;100075.84;;;16.73;100.00
8398;BME280;4236;54.504;9.588;2023-09-19T00:55:24;100096.34;;;16.74;100.00
8398;BME280;4236;54.504;9.588;2023-09-19T00:57:52;100094.69;;;16.73;100.00
8398;BME280;4236;54.504;9.588;2023-09-19T01:00:20;100096.03;;;16.71;100.00
8398;BME280;4236;54.504;9.588;2023-09-19T01:02:49;100096.56;;;16.73;100.00
8398;BME280;4236;54.504;9.588;2023-09-19T01:05:17;100105.97;;;16.70;100.00
8398;BME280;4236;54.504;9.588;2023-09-19T01:07:47;100102.47;;;16.70;100.00
8398;BME280;4236;54.504;9.588;2023-09-19T01:10:17;100100.28;;;16.67;100.00
8398;BME280;4236;54.504;9.588;2023-09-19T01:12:53;100108.31;;;16.62;100.00
8398;BME280;4236;54.504;9.588;2023-09-19T01:15:31;100117.13;;;16.57;100.00
8398;BME280;4236;54.504;9.588;2023-09-19T01:18:07;100117.38;;;16.55;100.00
8398;BME280;4236;54.504;9.588;2023-09-19T01:20:42;100108.91;;;16.47;100.00
8398;BME280;4236;54.504;9.588;2023-09-19T01:23:21;100110.94;;;16.40;100.00
8398;BME280;4236;54.504;9.588;2023-09-19T01:26:10;100117.81;;;16.31;100.00
8398;BME280;4236;54.504;9.588;2023-09-19T01:28:53;100124.28;;;16.30;100.00
8398;BME280;4236;54.504;9.588;2023-09-19T01:31:24;100132.59;;;16.28;100.00
8398;BME280;4236;54.504;9.588;2023-09-19T01:33:58;100131.53;;;16.29;100.00
8398;BME280;4236;54.504;9.588;2023-09-19T01:36:28;100127.16;;;16.23;100.00
8398;BME280;4236;54.504;9.588;2023-09-19T01:38:58;100123.09;;;16.21;100.00
8398;BME280;4236;54.504;9.588;2023-09-19T01:41:41;100119.50;;;16.15;100.00
8398;BME280;4236;54.504;9.588;2023-09-19T01:44:17;100123.75;;;16.11;100.00
8398;BME280;4236;54.504;9.588;2023-09-19T01:46:48;100131.59;;;16.13;100.00
8398;BME280;4236;54.504;9.588;2023-09-19T01:49:24;100125.88;;;16.09;100.00
8398;BME280;4236;54.504;9.588;2023-09-19T01:52:02;100134.78;;;16.10;100.00
8398;BME280;4236;54.504;9.588;2023-09-19T01:54:37;100134.19;;;16.08;100.00
8398;BME280;4236;54.504;9.588;2023-09-19T01:57:09;100132.00;;;16.04;100.00
8398;BME280;4236;54.504;9.588;2023-09-19T01:59:47;100128.41;;;15.99;100.00
8398;BME280;4236;54.504;9.588;2023-09-19T02:02:17;100134.06;;;15.97;100.00
8398;BME280;4236;54.504;9.588;2023-09-19T02:04:48;100130.44;;;15.92;100.00
8398;BME280;4236;54.504;9.588;2023-09-19T02:07:16;100131.19;;;15.87;100.00
8398;BME280;4236;54.504;9.588;2023-09-19T02:09:44;100123.63;;;15.84;100.00
8398;BME280;4236;54.504;9.588;2023-09-19T02:12:14;100133.72;;;15.77;100.00
8398;BME280;4236;54.504;9.588;2023-09-19T02:14:42;100134.47;;;15.73;100.00
8398;BME280;4236;54.504;9.588;2023-09-19T02:17:10;100128.75;;;15.69;100.00
8398;BME280;4236;54.504;9.588;2023-09-19T02:19:40;100128.34;;;15.61;100.00
8398;BME280;4236;54.504;9.588;2023-09-19T02:22:08;100132.09;;;15.60;100.00
8398;BME280;4236;54.504;9.588;2023-09-19T02:24:37;100129.66;;;15.58;100.00
8398;BME280;4236;54.504;9.588;2023-09-19T02:27:05;100124.19;;;15.53;100.00
8398;BME280;4236;54.504;9.588;2023-09-19T02:29:34;100124.09;;;15.48;100.00
8398;BME280;4236;54.504;9.588;2023-09-19T02:32:01;100123.75;;;15.44;100.00
8398;BME280;4236;54.504;9.588;2023-09-19T02:34:31;100131.38;;;15.36;100.00
8398;BME280;4236;54.504;9.588;2023-09-19T02:37:00;100132.47;;;15.35;100.00
8398;BME280;4236;54.504;9.588;2023-09-19T02:39:28;100137.25;;;15.33;100.00
8398;BME280;4236;54.504;9.588;2023-09-19T02:41:55;100140.41;;;15.30;100.00
8398;BME280;4236;54.504;9.588;2023-09-19T02:44:23;100155.97;;;15.28;100.00
8398;BME280;4236;54.504;9.588;2023-09-19T02:46:51;100157.63;;;15.29;100.00
8398;BME280;4236;54.504;9.588;2023-09-19T02:49:19;100151.97;;;15.30;100.00
8398;BME280;4236;54.504;9.588;2023-09-19T02:51:47;100158.19;;;15.31;100.00
8398;BME280;4236;54.504;9.588;2023-09-19T02:54:16;100167.88;;;15.32;100.00
8398;BME280;4236;54.504;9.588;2023-09-19T02:56:43;100222.16;;;15.34;100.00
8398;BME280;4236;54.504;9.588;2023-09-19T02:59:11;100233.47;;;15.36;100.00
8398;BME280;4236;54.504;9.588;2023-09-19T03:01:39;100251.50;;;15.24;100.00
8398;BME280;4236;54.504;9.588;2023-09-19T03:04:07;100247.38;;;15.05;100.00
8398;BME280;4236;54.504;9.588;2023-09-19T03:06:37;100229.34;;;14.77;100.00
8398;BME280;4236;54.504;9.588;2023-09-19T03:09:06;100223.53;;;14.57;100.00
8398;BME280;4236;54.504;9.588;2023-09-19T03:11:40;100208.03;;;14.47;100.00
8398;BME280;4236;54.504;9.588;2023-09-19T03:14:08;100214.91;;;14.43;100.00
8398;BME280;4236;54.504;9.588;2023-09-19T03:16:37;100213.16;;;14.37;100.00
8398;BME280;4236;54.504;9.588;2023-09-19T03:19:05;100217.13;;;14.34;100.00
8398;BME280;4236;54.504;9.588;2023-09-19T03:21:33;100209.97;;;14.28;100.00
8398;BME280;4236;54.504;9.588;2023-09-19T03:24:03;100208.00;;;14.24;100.00
8398;BME280;4236;54.504;9.588;2023-09-19T03:26:31;100219.66;;;14.18;100.00
8398;BME280;4236;54.504;9.588;2023-09-19T03:29:03;100219.31;;;14.14;100.00
8398;BME280;4236;54.504;9.588;2023-09-19T03:31:33;100216.53;;;14.09;100.00
8398;BME280;4236;54.504;9.588;2023-09-19T03:34:03;100213.69;;;14.04;100.00
8398;BME280;4236;54.504;9.588;2023-09-19T03:36:31;100217.56;;;13.97;100.00
8398;BME280;4236;54.504;9.588;2023-09-19T03:38:59;100211.00;;;13.93;100.00
8398;BME280;4236;54.504;9.588;2023-09-19T03:41:27;100218.22;;;13.92;100.00
8398;BME280;4236;54.504;9.588;2023-09-19T03:43:54;100216.00;;;13.89;100.00
8398;BME280;4236;54.504;9.588;2023-09-19T03:46:23;100212.53;;;13.89;100.00
8398;BME280;4236;54.504;9.588;2023-09-19T03:48:51;100210.66;;;13.89;100.00
8398;BME280;4236;54.504;9.588;2023-09-19T03:51:19;100208.66;;;13.84;100.00
8398;BME280;4236;54.504;9.588;2023-09-19T03:53:47;100218.09;;;13.87;100.00
8398;BME280;4236;54.504;9.588;2023-09-19T03:56:15;100222.44;;;13.88;100.00
8398;BME280;4236;54.504;9.588;2023-09-19T03:58:43;100219.50;;;13.90;100.00
8398;BME280;4236;54.504;9.588;2023-09-19T04:01:11;100220.56;;;13.89;100.00
8398;BME280;4236;54.504;9.588;2023-09-19T04:03:41;100217.44;;;13.92;100.00
8398;BME280;4236;54.504;9.588;2023-09-19T04:06:15;100212.28;;;13.90;100.00
8398;BME280;4236;54.504;9.588;2023-09-19T04:08:43;100212.28;;;13.90;100.00
8398;BME280;4236;54.504;9.588;2023-09-19T04:11:11;100213.56;;;13.88;100.00
8398;BME280;4236;54.504;9.588;2023-09-19T04:13:39;100210.31;;;13.85;100.00
8398;BME280;4236;54.504;9.588;2023-09-19T04:16:07;100223.09;;;13.83;100.00
8398;BME280;4236;54.504;9.588;2023-09-19T04:18:35;100224.97;;;13.83;100.00
8398;BME280;4236;54.504;9.588;2023-09-19T04:21:07;100213.91;;;13.79;100.00
8398;BME280;4236;54.504;9.588;2023-09-19T04:23:35;100225.22;;;13.81;100.00
8398;BME280;4236;54.504;9.588;2023-09-19T04:26:02;100231.16;;;13.83;100.00
8398;BME280;4236;54.504;9.588;2023-09-19T04:28:31;100238.97;;;13.85;100.00
8398;BME280;4236;54.504;9.588;2023-09-19T04:31:00;100238.97;;;13.85;100.00
8398;BME280;4236;54.504;9.588;2023-09-19T04:33:28;100220.56;;;13.89;100.00
8398;BME280;4236;54.504;9.588;2023-09-19T04:35:56;100236.41;;;13.90;100.00
8398;BME280;4236;54.504;9.588;2023-09-19T04:38:34;100257.19;;;13.95;100.00
8398;BME280;4236;54.504;9.588;2023-09-19T04:41:03;100256.38;;;13.94;100.00
8398;BME280;4236;54.504;9.588;2023-09-19T04:43:30;100265.69;;;13.92;100.00
8398;BME280;4236;54.504;9.588;2023-09-19T04:45:58;100253.91;;;13.93;100.00
8398;BME280;4236;54.504;9.588;2023-09-19T04:48:27;100262.41;;;13.90;100.00
8398;BME280;4236;54.504;9.588;2023-09-19T04:50:55;100269.84;;;13.88;100.00
8398;BME280;4236;54.504;9.588;2023-09-19T04:53:23;100267.84;;;13.83;100.00
8398;BME280;4236;54.504;9.588;2023-09-19T04:55:52;100254.69;;;13.81;100.00
8398;BME280;4236;54.504;9.588;2023-09-19T04:58:22;100260.25;;;13.80;100.00
8398;BME280;4236;54.504;9.588;2023-09-19T05:00:50;100272.41;;;13.82;100.00
8398;BME280;4236;54.504;9.588;2023-09-19T05:03:18;100274.19;;;13.89;100.00
8398;BME280;4236;54.504;9.588;2023-09-19T05:05:46;100275.78;;;13.90;100.00
8398;BME280;4236;54.504;9.588;2023-09-19T05:08:14;100278.47;;;13.90;100.00
8398;BME280;4236;54.504;9.588;2023-09-19T05:10:42;100289.19;;;13.90;100.00
8398;BME280;4236;54.504;9.588;2023-09-19T05:13:11;100287.59;;;13.89;100.00
8398;BME280;4236;54.504;9.588;2023-09-19T05:15:39;100269.16;;;13.92;100.00
8398;BME280;4236;54.504;9.588;2023-09-19T05:18:07;100263.91;;;13.85;100.00
8398;BME280;4236;54.504;9.588;2023-09-19T05:20:34;100266.94;;;13.89;100.00
8398;BME280;4236;54.504;9.588;2023-09-19T05:23:05;100264.59;;;13.81;100.00
8398;BME280;4236;54.504;9.588;2023-09-19T05:25:36;100266.81;;;13.84;100.00
8398;BME280;4236;54.504;9.588;2023-09-19T05:28:06;100272.53;;;13.88;100.00
8398;BME280;4236;54.504;9.588;2023-09-19T05:30:35;100272.09;;;13.91;100.00
8398;BME280;4236;54.504;9.588;2023-09-19T05:33:05;100280.34;;;13.89;100.00
8398;BME280;4236;54.504;9.588;2023-09-19T05:35:33;100285.03;;;13.94;100.00
8398;BME280;4236;54.504;9.588;2023-09-19T05:38:03;100290.75;;;13.97;100.00
8398;BME280;4236;54.504;9.588;2023-09-19T05:40:32;100285.03;;;13.94;100.00
8398;BME280;4236;54.504;9.588;2023-09-19T05:42:59;100306.34;;;13.89;100.00
8398;BME280;4236;54.504;9.588;2023-09-19T05:45:27;100297.78;;;13.80;100.00
8398;BME280;4236;54.504;9.588;2023-09-19T05:48:07;100299.69;;;13.79;100.00
8398;BME280;4236;54.504;9.588;2023-09-19T05:50:35;100314.09;;;13.78;100.00
8398;BME280;4236;54.504;9.588;2023-09-19T05:53:03;100306.66;;;13.80;100.00
8398;BME280;4236;54.504;9.588;2023-09-19T05:55:31;100317.63;;;13.79;100.00
8398;BME280;4236;54.504;9.588;2023-09-19T05:57:59;100329.16;;;13.79;100.00
8398;BME280;4236;54.504;9.588;2023-09-19T06:00:30;100313.41;;;13.83;100.00
8398;BME280;4236;54.504;9.588;2023-09-19T06:02:59;100327.19;;;13.86;100.00
8398;BME280;4236;54.504;9.588;2023-09-19T06:05:28;100334.50;;;13.79;100.00
8398;BME280;4236;54.504;9.588;2023-09-19T06:07:56;100336.59;;;13.77;100.00
8398;BME280;4236;54.504;9.588;2023-09-19T06:10:27;100338.75;;;13.69;100.00
8398;BME280;4236;54.504;9.588;2023-09-19T06:12:55;100333.66;;;13.67;100.00
8398;BME280;4236;54.504;9.588;2023-09-19T06:15:24;100328.28;;;13.67;100.00
8398;BME280;4236;54.504;9.588;2023-09-19T06:17:54;100336.53;;;13.66;100.00
8398;BME280;4236;54.504;9.588;2023-09-19T06:20:25;100335.50;;;13.67;100.00
8398;BME280;4236;54.504;9.588;2023-09-19T06:22:53;100331.41;;;13.64;100.00
8398;BME280;4236;54.504;9.588;2023-09-19T06:25:21;100347.50;;;13.64;100.00
8398;BME280;4236;54.504;9.588;2023-09-19T06:27:50;100365.63;;;13.62;100.00
8398;BME280;4236;54.504;9.588;2023-09-19T06:30:21;100383.81;;;13.60;100.00
8398;BME280;4236;54.504;9.588;2023-09-19T06:32:49;100381.06;;;13.67;100.00
8398;BME280;4236;54.504;9.588;2023-09-19T06:35:22;100386.72;;;13.59;100.00
8398;BME280;4236;54.504;9.588;2023-09-19T06:37:54;100383.75;;;13.49;100.00
8398;BME280;4236;54.504;9.588;2023-09-19T06:40:24;100377.63;;;13.42;100.00
8398;BME280;4236;54.504;9.588;2023-09-19T06:42:53;100358.22;;;13.28;100.00
8398;BME280;4236;54.504;9.588;2023-09-19T06:45:22;100368.25;;;13.14;100.00
8398;BME280;4236;54.504;9.588;2023-09-19T06:47:53;100359.66;;;13.06;100.00
8398;BME280;4236;54.504;9.588;2023-09-19T06:50:25;100341.34;;;13.09;100.00
8398;BME280;4236;54.504;9.588;2023-09-19T06:52:55;100354.97;;;13.08;100.00
8398;BME280;4236;54.504;9.588;2023-09-19T06:55:25;100350.34;;;13.15;100.00
8398;BME280;4236;54.504;9.588;2023-09-19T06:57:55;100360.00;;;13.16;100.00
8398;BME280;4236;54.504;9.588;2023-09-19T07:00:23;100371.84;;;13.26;100.00
8398;BME280;4236;54.504;9.588;2023-09-19T07:02:58;100352.13;;;13.39;100.00
8398;BME280;4236;54.504;9.588;2023-09-19T07:05:27;100364.75;;;13.50;100.00
8398;BME280;4236;54.504;9.588;2023-09-19T07:07:57;100373.59;;;13.69;100.00
8398;BME280;4236;54.504;9.588;2023-09-19T07:10:25;100367.53;;;13.92;100.00
8398;BME280;4236;54.504;9.588;2023-09-19T07:12:55;100377.28;;;14.16;100.00
8398;BME280;4236;54.504;9.588;2023-09-19T07:15:23;100383.84;;;14.31;100.00
8398;BME280;4236;54.504;9.588;2023-09-19T07:17:51;100365.75;;;14.45;100.00
8398;BME280;4236;54.504;9.588;2023-09-19T07:20:20;100361.78;;;14.48;100.00
8398;BME280;4236;54.504;9.588;2023-09-19T07:22:49;100365.75;;;14.57;100.00
8398;BME280;4236;54.504;9.588;2023-09-19T07:25:18;100362.84;;;14.70;100.00
8398;BME280;4236;54.504;9.588;2023-09-19T07:27:46;100366.34;;;14.82;100.00
8398;BME280;4236;54.504;9.588;2023-09-19T07:30:14;100369.84;;;14.94;100.00
8398;BME280;4236;54.504;9.588;2023-09-19T07:32:42;100363.66;;;14.93;100.00
8398;BME280;4236;54.504;9.588;2023-09-19T07:35:10;100374.75;;;15.09;100.00
8398;BME280;4236;54.504;9.588;2023-09-19T07:37:38;100369.59;;;15.19;100.00
8398;BME280;4236;54.504;9.588;2023-09-19T07:40:06;100362.56;;;15.29;100.00
8398;BME280;4236;54.504;9.588;2023-09-19T07:42:37;100369.47;;;15.37;100.00
8398;BME280;4236;54.504;9.588;2023-09-19T07:45:07;100374.63;;;15.50;100.00
8398;BME280;4236;54.504;9.588;2023-09-19T07:47:35;100376.53;;;15.66;100.00
8398;BME280;4236;54.504;9.588;2023-09-19T07:50:04;100377.94;;;15.69;100.00
8398;BME280;4236;54.504;9.588;2023-09-19T07:52:34;100366.75;;;15.60;100.00
8398;BME280;4236;54.504;9.588;2023-09-19T07:55:01;100386.97;;;15.51;100.00
8398;BME280;4236;54.504;9.588;2023-09-19T07:57:37;100383.25;;;15.52;100.00
8398;BME280;4236;54.504;9.588;2023-09-19T08:00:05;100384.28;;;15.51;100.00
8398;BME280;4236;54.504;9.588;2023-09-19T08:02:34;100380.44;;;15.59;100.00
8398;BME280;4236;54.504;9.588;2023-09-19T08:05:03;100373.03;;;15.66;100.00
8398;BME280;4236;54.504;9.588;2023-09-19T08:07:33;100390.19;;;15.76;100.00
8398;BME280;4236;54.504;9.588;2023-09-19T08:10:03;100391.13;;;15.82;100.00
8398;BME280;4236;54.504;9.588;2023-09-19T08:12:31;100386.22;;;15.79;100.00
8398;BME280;4236;54.504;9.588;2023-09-19T08:15:00;100395.31;;;15.78;100.00
8398;BME280;4236;54.504;9.588;2023-09-19T08:17:27;100382.34;;;15.75;100.00
8398;BME280;4236;54.504;9.588;2023-09-19T08:19:56;100387.84;;;15.80;100.00
8398;BME280;4236;54.504;9.588;2023-09-19T08:22:23;100384.09;;;15.81;100.00
8398;BME280;4236;54.504;9.588;2023-09-19T08:24:51;100356.63;;;15.79;100.00
8398;BME280;4236;54.504;9.588;2023-09-19T08:27:19;100367.56;;;15.89;100.00
8398;BME280;4236;54.504;9.588;2023-09-19T08:29:47;100385.13;;;15.91;100.00
8398;BME280;4236;54.504;9.588;2023-09-19T08:32:18;100390.25;;;16.38;100.00
8398;BME280;4236;54.504;9.588;2023-09-19T08:34:50;100376.66;;;16.94;100.00
8398;BME280;4236;54.504;9.588;2023-09-19T08:37:18;100367.84;;;17.37;100.00
8398;BME280;4236;54.504;9.588;2023-09-19T08:39:45;100363.97;;;17.50;100.00
8398;BME280;4236;54.504;9.588;2023-09-19T08:42:13;100364.09;;;17.60;100.00
8398;BME280;4236;54.504;9.588;2023-09-19T08:44:43;100354.50;;;17.91;100.00
8398;BME280;4236;54.504;9.588;2023-09-19T08:47:15;100368.09;;;18.28;100.00
8398;BME280;4236;54.504;9.588;2023-09-19T08:49:53;100375.59;;;18.52;100.00
8398;BME280;4236;54.504;9.588;2023-09-19T08:52:28;100356.28;;;18.65;100.00
8398;BME280;4236;54.504;9.588;2023-09-19T08:55:02;100353.75;;;18.54;100.00
8398;BME280;4236;54.504;9.588;2023-09-19T08:57:33;100352.53;;;18.40;100.00
8398;BME280;4236;54.504;9.588;2023-09-19T09:00:02;100351.06;;;18.27;100.00
8398;BME280;4236;54.504;9.588;2023-09-19T09:02:32;100349.44;;;17.99;100.00
8398;BME280;4236;54.504;9.588;2023-09-19T09:05:04;100371.63;;;17.80;100.00
8398;BME280;4236;54.504;9.588;2023-09-19T09:07:33;100372.31;;;17.70;100.00
8398;BME280;4236;54.504;9.588;2023-09-19T09:10:02;100373.19;;;17.76;100.00
8398;BME280;4236;54.504;9.588;2023-09-19T09:12:30;100377.41;;;17.88;100.00
8398;BME280;4236;54.504;9.588;2023-09-19T09:14:58;100394.97;;;17.69;100.00
8398;BME280;4236;54.504;9.588;2023-09-19T09:17:26;100400.72;;;17.78;100.00
8398;BME280;4236;54.504;9.588;2023-09-19T09:19:55;100394.09;;;17.63;100.00
8398;BME280;4236;54.504;9.588;2023-09-19T09:22:25;100400.31;;;17.64;100.00
8398;BME280;4236;54.504;9.588;2023-09-19T09:24:53;100399.09;;;17.55;100.00
8398;BME280;4236;54.504;9.588;2023-09-19T09:27:24;100384.22;;;17.52;100.00
8398;BME280;4236;54.504;9.588;2023-09-19T09:29:52;100390.53;;;17.41;100.00
8398;BME280;4236;54.504;9.588;2023-09-19T09:32:23;100391.91;;;17.60;100.00
8398;BME280;4236;54.504;9.588;2023-09-19T09:34:53;100392.00;;;17.49;100.00
8398;BME280;4236;54.504;9.588;2023-09-19T09:37:28;100390.19;;;17.76;100.00
8398;BME280;4236;54.504;9.588;2023-09-19T09:39:59;100394.97;;;17.69;100.00
8398;BME280;4236;54.504;9.588;2023-09-19T09:42:45;100382.34;;;17.75;100.00
8398;BME280;4236;54.504;9.588;2023-09-19T09:45:17;100381.50;;;17.96;100.00
8398;BME280;4236;54.504;9.588;2023-09-19T09:47:47;100378.13;;;18.05;100.00
8398;BME280;4236;54.504;9.588;2023-09-19T09:50:25;100365.84;;;18.19;100.00
8398;BME280;4236;54.504;9.588;2023-09-19T09:52:59;100369.25;;;18.37;100.00
8398;BME280;4236;54.504;9.588;2023-09-19T09:55:57;100370.59;;;18.66;100.00
8398;BME280;4236;54.504;9.588;2023-09-19T09:58:26;100366.94;;;18.82;100.00
8398;BME280;4236;54.504;9.588;2023-09-19T10:00:56;100363.25;;;18.93;100.00
8398;BME280;4236;54.504;9.588;2023-09-19T10:03:33;100358.19;;;19.07;100.00
8398;BME280;4236;54.504;9.588;2023-09-19T10:06:07;100361.81;;;19.32;100.00
8398;BME280;4236;54.504;9.588;2023-09-19T10:09:01;100360.75;;;19.33;100.00
8398;BME280;4236;54.504;9.588;2023-09-19T10:11:41;100361.69;;;19.49;100.00
8398;BME280;4236;54.504;9.588;2023-09-19T10:14:10;100363.84;;;19.47;100.00
8398;BME280;4236;54.504;9.588;2023-09-19T10:16:44;100363.75;;;19.32;100.00
8398;BME280;4236;54.504;9.588;2023-09-19T10:19:16;100355.69;;;19.42;100.00
8398;BME280;4236;54.504;9.588;2023-09-19T10:21:50;100370.78;;;19.38;100.00
8398;BME280;4236;54.504;9.588;2023-09-19T10:24:20;100364.06;;;19.41;100.00
8398;BME280;4236;54.504;9.588;2023-09-19T10:26:51;100363.03;;;19.47;100.00
8398;BME280;4236;54.504;9.588;2023-09-19T10:29:20;100357.94;;;19.65;100.00
8398;BME280;4236;54.504;9.588;2023-09-19T10:31:49;100379.69;;;19.96;100.00
8398;BME280;4236;54.504;9.588;2023-09-19T10:34:20;100379.72;;;20.01;100.00
8398;BME280;4236;54.504;9.588;2023-09-19T10:36:51;100367.59;;;20.38;100.00
8398;BME280;4236;54.504;9.588;2023-09-19T10:39:20;100367.88;;;20.32;100.00
8398;BME280;4236;54.504;9.588;2023-09-19T10:41:50;100367.06;;;20.31;100.00
8398;BME280;4236;54.504;9.588;2023-09-19T10:44:25;100364.38;;;20.52;100.00
8398;BME280;4236;54.504;9.588;2023-09-19T10:46:55;100361.59;;;20.16;100.00
8398;BME280;4236;54.504;9.588;2023-09-19T10:49:23;100346.97;;;20.12;100.00
8398;BME280;4236;54.504;9.588;2023-09-19T10:51:55;100365.16;;;20.32;100.00
8398;BME280;4236;54.504;9.588;2023-09-19T10:54:28;100360.28;;;20.49;100.00
8398;BME280;4236;54.504;9.588;2023-09-19T10:56:59;100362.97;;;20.19;100.00
8398;BME280;4236;54.504;9.588;2023-09-19T10:59:27;100360.25;;;20.24;100.00
8398;BME280;4236;54.504;9.588;2023-09-19T11:02:16;100367.31;;;20.40;100.00
8398;BME280;4236;54.504;9.588;2023-09-19T11:04:45;100353.19;;;20.08;100.00
8398;BME280;4236;54.504;9.588;2023-09-19T11:07:15;100353.22;;;20.13;100.00
8398;BME280;4236;54.504;9.588;2023-09-19T11:09:48;100362.59;;;19.80;100.00
8398;BME280;4236;54.504;9.588;2023-09-19T11:12:48;100367.34;;;19.48;100.00
8398;BME280;4236;54.504;9.588;2023-09-19T11:18:54;100370.72;;;19.23;100.00
8398;BME280;4236;54.504;9.588;2023-09-19T11:21:41;100356.06;;;19.14;100.00
8398;BME280;4236;54.504;9.588;2023-09-19T11:24:32;100367.41;;;19.11;100.00
8398;BME280;4236;54.504;9.588;2023-09-19T11:27:12;100377.59;;;18.99;100.00
8398;BME280;4236;54.504;9.588;2023-09-19T11:29:40;100383.00;;;18.99;100.00
8398;BME280;4236;54.504;9.588;2023-09-19T11:32:08;100371.34;;;18.93;100.00
8398;BME280;4236;54.504;9.588;2023-09-19T11:34:41;100373.06;;;19.09;100.00
8398;BME280;4236;54.504;9.588;2023-09-19T11:40:38;100371.84;;;19.32;100.00
8398;BME280;4236;54.504;9.588;2023-09-19T11:43:30;100362.47;;;19.03;100.00
8398;BME280;4236;54.504;9.588;2023-09-19T11:46:07;100382.09;;;18.88;100.00
8398;BME280;4236;54.504;9.588;2023-09-19T11:48:35;100374.59;;;18.95;100.00
8398;BME280;4236;54.504;9.588;2023-09-19T11:51:13;100368.38;;;18.95;100.00
8398;BME280;4236;54.504;9.588;2023-09-19T11:53:49;100379.19;;;19.00;100.00
8398;BME280;4236;54.504;9.588;2023-09-19T11:56:19;100376.91;;;19.23;100.00
8398;BME280;4236;54.504;9.588;2023-09-19T11:58:51;100367.31;;;19.43;100.00
8398;BME280;4236;54.504;9.588;2023-09-19T12:01:22;100371.31;;;19.35;100.00
8398;BME280;4236;54.504;9.588;2023-09-19T12:03:53;100366.78;;;19.46;100.00
8398;BME280;4236;54.504;9.588;2023-09-19T12:06:24;100362.78;;;19.58;100.00
8398;BME280;4236;54.504;9.588;2023-09-19T12:08:52;100361.69;;;19.59;100.00
8398;BME280;4236;54.504;9.588;2023-09-19T12:11:22;100361.97;;;19.53;100.00
8398;BME280;4236;54.504;9.588;2023-09-19T12:13:52;100362.63;;;19.85;100.00
8398;BME280;4236;54.504;9.588;2023-09-19T12:16:20;100362.38;;;19.92;100.00
8398;BME280;4236;54.504;9.588;2023-09-19T12:18:51;100353.97;;;19.93;100.00
8398;BME280;4236;54.504;9.588;2023-09-19T12:21:25;100351.22;;;19.73;100.00
8398;BME280;4236;54.504;9.588;2023-09-19T12:23:58;100347.44;;;19.74;100.00
8398;BME280;4236;54.504;9.588;2023-09-19T12:26:26;100362.63;;;19.85;100.00
8398;BME280;4236;54.504;9.588;2023-09-19T12:28:56;100365.59;;;19.88;100.00
8398;BME280;4236;54.504;9.588;2023-09-19T12:31:25;100374.53;;;19.94;100.00
8398;BME280;4236;54.504;9.588;2023-09-19T12:33:54;100352.34;;;19.92;100.00
8398;BME280;4236;54.504;9.588;2023-09-19T12:36:23;100359.81;;;19.60;100.00
8398;BME280;4236;54.504;9.588;2023-09-19T12:38:55;100356.50;;;19.43;100.00
8398;BME280;4236;54.504;9.588;2023-09-19T12:41:26;100356.03;;;19.56;100.00
8398;BME280;4236;54.504;9.588;2023-09-19T12:43:54;100347.84;;;19.41;100.00
8398;BME280;4236;54.504;9.588;2023-09-19T12:46:23;100348.53;;;19.21;100.00
8398;BME280;4236;54.504;9.588;2023-09-19T12:49:16;100352.78;;;19.12;100.00
8398;BME280;4236;54.504;9.588;2023-09-19T12:51:45;100352.78;;;19.12;100.00
8398;BME280;4236;54.504;9.588;2023-09-19T12:54:14;100345.25;;;19.14;100.00
8398;BME280;4236;54.504;9.588;2023-09-19T12:56:43;100326.06;;;19.15;100.00
8398;BME280;4236;54.504;9.588;2023-09-19T12:59:13;100338.81;;;19.20;100.00
8398;BME280;4236;54.504;9.588;2023-09-19T13:01:43;100335.56;;;19.23;100.00
8398;BME280;4236;54.504;9.588;2023-09-19T13:04:14;100310.16;;;19.24;100.00
8398;BME280;4236;54.504;9.588;2023-09-19T13:06:45;100316.66;;;19.28;100.00
8398;BME280;4236;54.504;9.588;2023-09-19T13:09:15;100315.66;;;19.39;100.00
8398;BME280;4236;54.504;9.588;2023-09-19T13:11:43;100321.63;;;19.41;100.00
8398;BME280;4236;54.504;9.588;2023-09-19T13:14:16;100316.22;;;19.41;100.00
8398;BME280;4236;54.504;9.588;2023-09-19T13:16:57;100306.47;;;19.45;100.00
8398;BME280;4236;54.504;9.588;2023-09-19T13:19:37;100306.09;;;19.26;100.00
8398;BME280;4236;54.504;9.588;2023-09-19T13:22:36;100310.72;;;19.26;100.00
8398;BME280;4236;54.504;9.588;2023-09-19T13:25:07;100313.44;;;19.31;100.00